Time;durP1;ratioP1;P1;durP2;ratioP2;P2;SDS_P1;SDS_P2;PMS_P1;PMS_P2;Temp;Humidity;BMP_temperature;BMP_pressure;BME280_temperature;BME280_humidity;BME280_pressure;Samples;Min_cycle;Max_cycle;Signal;HPM_P1;HPM_P2
2021/12/11 00:02:00;;;;;;;50.45;32.00;;;;;;;1.44;97.71;100484.84;5085139;28;20028;-78
2021/12/11 00:04:32;;;;;;;53.05;30.90;;;;;;;1.39;97.42;100488.53;5093843;28;20103;-86
2021/12/11 00:06:58;;;;;;;54.47;32.00;;;;;;;1.37;97.31;100500.72;5094323;28;20024;-86
2021/12/11 00:09:28;;;;;;;50.30;31.55;;;;;;;1.36;97.64;100501.63;5084648;28;20079;-86
2021/12/11 00:12:05;;;;;;;48.33;29.63;;;;;;;1.36;97.42;100506.81;5071844;28;20024;-86
2021/12/11 00:14:35;;;;;;;52.13;32.90;;;;;;;1.31;97.42;100506.16;5107726;28;20024;-87
2021/12/11 00:17:01;;;;;;;49.42;31.05;;;;;;;1.30;97.54;100514.84;5103382;28;20440;-87
2021/12/11 00:19:31;;;;;;;54.15;31.67;;;;;;;1.27;97.22;100514.97;5092554;28;20070;-87
2021/12/11 00:22:14;;;;;;;52.58;31.98;;;;;;;1.32;97.61;100523.41;5093401;28;20073;-79
2021/12/11 00:24:40;;;;;;;51.08;32.05;;;;;;;1.18;97.96;100517.00;5090329;28;20100;-87
2021/12/11 00:27:09;;;;;;;54.40;32.65;;;;;;;1.23;97.09;100535.84;5094479;28;20027;-87
2021/12/11 00:29:36;;;;;;;55.05;32.03;;;;;;;1.23;97.40;100538.41;5097664;28;20491;-85
2021/12/11 00:32:20;;;;;;;56.08;32.90;;;;;;;1.23;97.48;100546.19;5092915;28;20107;-87
2021/12/11 00:34:46;;;;;;;58.53;33.70;;;;;;;1.21;97.81;100554.94;5092976;28;20027;-85
2021/12/11 00:37:15;;;;;;;55.95;32.75;;;;;;;1.19;97.37;100557.56;5090741;28;20085;-87
2021/12/11 00:39:50;;;;;;;54.78;33.65;;;;;;;1.09;97.79;100551.06;5091114;28;20043;-86
2021/12/11 00:42:17;;;;;;;62.63;34.15;;;;;;;1.17;97.84;100559.38;5091551;28;20089;-87
2021/12/11 00:44:47;;;;;;;57.38;32.92;;;;;;;1.10;97.61;100570.03;5089109;28;20081;-87
2021/12/11 00:47:20;;;;;;;54.97;33.80;;;;;;;1.09;97.81;100569.19;5091631;28;20032;-86
2021/12/11 00:49:56;;;;;;;60.13;33.15;;;;;;;1.11;97.21;100577.75;5091951;28;20447;-87
2021/12/11 00:52:32;;;;;;;55.13;33.55;;;;;;;1.12;97.41;100582.03;5091934;28;20034;-87
2021/12/11 00:54:59;;;;;;;55.05;32.22;;;;;;;1.12;97.68;100579.44;5092995;28;20400;-87
2021/12/11 00:57:25;;;;;;;56.22;33.40;;;;;;;1.05;97.95;100578.00;5092476;28;20046;-87
2021/12/11 01:00:10;;;;;;;54.03;32.40;;;;;;;1.03;98.20;100590.16;5089944;28;20028;-87
2021/12/11 01:02:36;;;;;;;55.47;33.58;;;;;;;1.00;96.95;100592.88;5075925;28;20024;-87
2021/12/11 01:05:04;;;;;;;51.88;31.98;;;;;;;1.01;97.34;100604.94;5072166;28;20081;-87
2021/12/11 01:07:32;;;;;;;59.10;33.45;;;;;;;0.94;96.90;100601.72;5070321;28;20016;-87
2021/12/11 01:10:14;;;;;;;55.42;32.53;;;;;;;0.95;97.51;100607.75;5082457;28;20392;-80
2021/12/11 01:12:52;;;;;;;58.10;32.33;;;;;;;0.86;97.29;100602.94;5092616;28;20028;-88
2021/12/11 01:15:24;;;;;;;54.10;31.80;;;;;;;0.92;97.66;100618.22;5091217;28;20016;-88
2021/12/11 01:18:10;;;;;;;57.78;33.10;;;;;;;0.88;97.31;100614.91;5090689;28;20046;-80
2021/12/11 01:20:52;;;;;;;56.13;32.22;;;;;;;0.90;97.48;100631.25;5089774;28;20107;-80
2021/12/11 01:23:35;;;;;;;59.10;33.17;;;;;;;0.82;97.32;100622.06;5081383;28;20484;-88
2021/12/11 01:26:03;;;;;;;;;;;;;;;0.98;96.98;100633.53;5071510;28;20060;-89
2021/12/11 01:28:28;;;;;;;57.83;32.53;;;;;;;0.86;97.13;100637.44;5070071;28;19908;-81
2021/12/11 01:30:55;;;;;;;61.50;33.80;;;;;;;0.81;97.49;100631.59;5085926;28;20063;-88
2021/12/11 01:33:21;;;;;;;58.88;32.72;;;;;;;0.87;98.17;100649.50;5091727;28;20031;-88
2021/12/11 01:35:46;;;;;;;59.85;33.05;;;;;;;0.83;97.66;100642.72;5085017;28;20404;-88
2021/12/11 01:38:21;;;;;;;61.67;34.60;;;;;;;0.79;97.71;100645.47;5092142;28;20031;-80
2021/12/11 01:40:49;;;;;;;58.20;32.78;;;;;;;0.87;97.78;100671.94;5091616;28;20079;-88
2021/12/11 01:43:15;;;;;;;55.97;32.33;;;;;;;0.80;97.61;100660.09;5089162;28;20031;-87
2021/12/11 01:45:46;;;;;;;59.65;34.30;;;;;;;0.89;98.48;100680.50;5090898;28;20028;-86
2021/12/11 01:48:17;;;;;;;62.05;33.72;;;;;;;0.88;97.64;100684.00;5089322;28;20069;-86
2021/12/11 01:50:47;;;;;;;55.08;31.55;;;;;;;0.86;97.93;100691.81;5090565;28;20359;-86
2021/12/11 01:53:29;;;;;;;56.50;32.00;;;;;;;0.81;97.54;100687.72;5091487;28;20028;-87
2021/12/11 01:56:06;;;;;;;54.60;30.67;;;;;;;0.77;98.01;100697.31;5090454;28;20034;-86
2021/12/11 01:58:43;;;;;;;59.10;33.58;;;;;;;0.76;97.41;100705.97;5091680;28;20041;-87
2021/12/11 02:01:18;;;;;;;52.60;31.02;;;;;;;0.86;97.67;100732.41;5093325;28;20174;-86
2021/12/11 02:03:44;;;;;;;56.03;31.13;;;;;;;0.87;97.67;100734.09;5088566;28;20032;-86
2021/12/11 02:06:10;;;;;;;59.90;32.03;;;;;;;0.89;97.75;100747.84;5091078;28;20027;-79
2021/12/11 02:08:40;;;;;;;54.83;31.63;;;;;;;0.90;97.57;100746.94;5089099;28;20024;-86
2021/12/11 02:11:21;;;;;;;60.65;32.63;;;;;;;0.91;98.14;100735.69;5086839;28;20024;-86
2021/12/11 02:13:52;;;;;;;64.80;33.22;;;;;;;0.92;98.64;100727.00;5090689;28;20042;-86
2021/12/11 02:16:31;;;;;;;61.63;33.33;;;;;;;0.97;98.72;100745.81;5091765;28;20024;-88
2021/12/11 02:19:04;;;;;;;62.05;33.35;;;;;;;0.98;98.91;100747.50;5091129;28;20376;-80
2021/12/11 02:21:33;;;;;;;63.30;33.58;;;;;;;1.00;98.89;100748.28;5092863;28;20065;-87
2021/12/11 02:24:03;;;;;;;62.88;33.72;;;;;;;1.01;98.83;100750.00;5088952;28;20039;-87
2021/12/11 02:26:31;;;;;;;60.55;32.08;;;;;;;0.96;99.26;100744.13;5073080;28;20035;-87
2021/12/11 02:29:08;;;;;;;63.60;33.80;;;;;;;1.05;99.31;100768.84;5071660;28;20093;-87
2021/12/11 02:31:52;;;;;;;58.75;33.58;;;;;;;1.07;99.45;100772.22;5072402;28;20023;-87
2021/12/11 02:34:45;;;;;;;60.80;33.90;;;;;;;1.03;98.73;100770.66;5071462;28;20433;-88
2021/12/11 02:37:38;;;;;;;65.63;32.90;;;;;;;1.00;98.91;100781.97;5070763;28;20048;-88
2021/12/11 02:40:21;;;;;;;58.13;31.92;;;;;;;1.04;98.79;100785.28;5071513;28;20166;-86
2021/12/11 02:43:08;;;;;;;61.75;33.25;;;;;;;1.04;99.27;100786.13;5084234;28;20032;-86
2021/12/11 02:45:57;;;;;;;55.95;31.92;;;;;;;1.12;98.50;100802.25;5089585;28;20114;-79
2021/12/11 02:48:28;;;;;;;60.05;32.30;;;;;;;1.07;99.42;100804.16;5089428;28;20025;-79
2021/12/11 02:50:54;;;;;;;63.03;32.40;;;;;;;1.06;98.87;100802.47;5089841;28;20077;-86
2021/12/11 02:53:33;;;;;;;60.88;33.22;;;;;;;1.03;99.05;100796.56;5089056;28;20028;-86
2021/12/11 02:56:22;;;;;;;56.50;31.98;;;;;;;1.07;98.71;100811.94;5090449;28;20044;-86
2021/12/11 02:58:52;;;;;;;55.53;31.40;;;;;;;1.02;98.75;100824.22;5088256;28;20062;-79
2021/12/11 03:01:28;;;;;;;56.60;31.33;;;;;;;0.94;98.73;100814.13;5081649;28;20399;-79
2021/12/11 03:04:10;;;;;;;56.60;31.40;;;;;;;0.96;99.40;100816.66;5088127;28;20028;-86
2021/12/11 03:06:43;;;;;;;52.10;30.27;;;;;;;0.99;98.93;100823.47;5087639;28;20077;-86
2021/12/11 03:09:12;;;;;;;56.15;31.35;;;;;;;0.97;99.25;100827.84;5090144;28;20024;-80
2021/12/11 03:11:37;;;;;;;53.95;31.08;;;;;;;1.01;98.70;100834.63;5089832;28;20024;-86
2021/12/11 03:14:04;;;;;;;53.38;29.70;;;;;;;1.00;98.89;100844.13;5103254;28;20387;-86
2021/12/11 03:16:33;;;;;;;56.42;30.42;;;;;;;0.99;99.01;100842.44;5099009;28;20051;-86
2021/12/11 03:19:01;;;;;;;53.33;30.48;;;;;;;0.93;99.35;100835.75;5092446;28;20124;-86
2021/12/11 03:21:27;;;;;;;58.97;32.28;;;;;;;0.94;99.43;100834.84;5092354;28;20064;-87
2021/12/11 03:23:53;;;;;;;58.13;32.40;;;;;;;1.00;99.13;100848.47;5093593;28;20034;-86
2021/12/11 03:26:19;;;;;;;61.65;31.83;;;;;;;1.02;99.02;100846.69;5092315;28;20020;-86
2021/12/11 03:28:45;;;;;;;56.75;31.70;;;;;;;0.97;99.50;100844.25;5093616;28;20016;-79
2021/12/11 03:31:12;;;;;;;55.70;31.15;;;;;;;1.08;99.57;100862.84;5093213;28;20020;-79
2021/12/11 03:33:42;;;;;;;59.15;32.08;;;;;;;1.05;98.98;100856.94;5091214;28;20023;-86
2021/12/11 03:36:12;;;;;;;58.97;31.60;;;;;;;1.08;99.17;100868.03;5093286;28;20046;-87
2021/12/11 03:38:48;;;;;;;56.15;31.40;;;;;;;1.09;99.61;100869.72;5093270;28;20491;-86
2021/12/11 03:41:13;;;;;;;53.55;31.15;;;;;;;1.05;99.09;100857.78;5092659;28;20030;-86
2021/12/11 03:43:39;;;;;;;60.40;33.42;;;;;;;1.11;99.59;100865.34;5091267;28;20032;-86
2021/12/11 03:46:08;;;;;;;57.60;31.80;;;;;;;1.12;99.62;100866.19;5074549;28;20081;-86
2021/12/11 03:48:44;;;;;;;58.53;31.40;;;;;;;1.08;99.44;100857.66;5090116;28;21198;-86
2021/12/11 03:51:14;;;;;;;61.42;33.42;;;;;;;1.14;100.00;100875.59;5090052;28;20082;-79
2021/12/11 03:53:40;;;;;;;61.33;32.92;;;;;;;1.08;99.96;100862.84;5092158;28;20023;-79
2021/12/11 03:56:23;;;;;;;62.47;32.28;;;;;;;1.15;100.00;100863.47;5092154;28;20508;-87
2021/12/11 03:58:50;;;;;;;60.95;33.58;;;;;;;1.16;99.98;100870.34;5091471;28;20096;-79
2021/12/11 04:01:33;;;;;;;63.20;34.03;;;;;;;1.21;100.00;100882.28;5091129;28;20361;-86
2021/12/11 04:04:05;;;;;;;64.57;34.35;;;;;;;1.25;99.93;100886.44;5093546;28;20042;-86
2021/12/11 04:06:32;;;;;;;65.65;34.10;;;;;;;1.18;100.00;100872.00;5091661;28;20107;-85
2021/12/11 04:08:59;;;;;;;65.40;35.28;;;;;;;1.22;100.00;100871.00;5089721;28;20016;-86
2021/12/11 04:11:28;;;;;;;70.32;35.47;;;;;;;1.23;100.00;100882.22;5092002;28;20024;-85
2021/12/11 04:14:01;;;;;;;63.72;33.67;;;;;;;1.32;100.00;100894.00;5101595;28;20066;-79
2021/12/11 04:16:27;;;;;;;70.55;35.80;;;;;;;1.29;100.00;100891.53;5112294;28;20027;-86
2021/12/11 04:19:03;;;;;;;71.22;35.50;;;;;;;1.29;100.00;100894.13;5112459;28;20019;-86
2021/12/11 04:21:29;;;;;;;71.60;35.85;;;;;;;1.31;100.00;100894.91;5113403;28;20517;-80
2021/12/11 04:23:54;;;;;;;66.22;34.83;;;;;;;1.38;100.00;100912.78;5081990;28;20020;-86
2021/12/11 04:26:21;;;;;;;72.13;35.47;;;;;;;1.38;100.00;100909.34;5071306;28;20082;-86
2021/12/11 04:28:47;;;;;;;67.82;35.08;;;;;;;1.33;100.00;100898.28;5073558;28;20036;-88
2021/12/11 04:31:17;;;;;;;64.30;34.10;;;;;;;1.42;100.00;100914.34;5071533;28;20029;-86
2021/12/11 04:33:46;;;;;;;66.30;35.47;;;;;;;1.38;100.00;100909.34;5071891;28;20081;-86
2021/12/11 04:36:20;;;;;;;66.55;33.95;;;;;;;1.45;100.00;100919.44;5072175;28;20131;-85
2021/12/11 04:38:47;;;;;;;67.45;34.97;;;;;;;1.39;100.00;100911.03;5070499;28;20027;-86
2021/12/11 04:41:18;;;;;;;65.88;35.03;;;;;;;1.47;100.00;100922.81;5075888;28;20169;-86
2021/12/11 04:43:47;;;;;;;65.72;34.25;;;;;;;1.45;100.00;100928.94;5087546;28;20087;-86
2021/12/11 04:46:13;;;;;;;63.63;33.03;;;;;;;1.51;100.00;100944.28;5090474;28;20019;-86
2021/12/11 04:49:12;;;;;;;63.47;33.70;;;;;;;1.47;100.00;100932.34;5093254;28;20391;-80
2021/12/11 04:54:32;;;;;;;63.22;33.42;;;;;;;1.49;100.00;100943.50;5092203;28;20499;-86
2021/12/11 05:00:14;;;;;;;62.80;33.30;;;;;;;1.59;100.00;100963.00;5048424;28;20103;-80
2021/12/11 05:10:43;;;;;;;63.03;32.67;;;;;;;1.63;100.00;100963.78;5088948;28;20093;-86
2021/12/11 05:13:08;;;;;;;61.13;32.35;;;;;;;1.68;100.00;100973.09;5088243;28;20081;-86
2021/12/11 05:15:39;;;;;;;59.20;31.38;;;;;;;1.70;100.00;100976.47;5087922;28;20024;-86
2021/12/11 05:18:15;;;;;;;64.10;32.45;;;;;;;1.70;100.00;100973.03;5091999;28;20023;-86
2021/12/11 05:20:45;;;;;;;67.07;32.33;;;;;;;1.74;100.00;100988.44;5090317;28;20495;-86
2021/12/11 05:23:10;;;;;;;63.70;32.20;;;;;;;1.76;100.00;100991.81;5091898;28;20016;-86
2021/12/11 05:25:36;;;;;;;57.42;31.90;;;;;;;1.69;100.00;100982.56;5088603;28;20054;-80
2021/12/11 05:28:02;;;;;;;61.15;31.83;;;;;;;1.72;100.00;100982.44;5089695;28;20397;-86
2021/12/11 05:30:37;;;;;;;69.97;33.80;;;;;;;1.77;100.00;101001.28;5088751;28;20499;-86
2021/12/11 05:33:02;;;;;;;63.33;31.95;;;;;;;1.73;100.00;100976.34;5071681;28;20032;-86
2021/12/11 05:35:31;;;;;;;57.97;32.58;;;;;;;1.78;100.00;100995.19;5070251;28;20056;-86
2021/12/11 05:37:58;;;;;;;60.17;32.38;;;;;;;1.84;100.00;100999.31;5070119;28;20039;-85
2021/12/11 05:40:26;;;;;;;60.58;32.17;;;;;;;1.78;100.00;100990.00;5070322;28;20020;-85
2021/12/11 05:42:52;;;;;;;59.30;31.10;;;;;;;1.89;100.00;101006.03;5072420;28;20035;-86
2021/12/11 05:45:24;;;;;;;57.95;32.22;;;;;;;1.91;100.00;101010.31;5072125;28;20032;-86
2021/12/11 05:47:50;;;;;;;64.78;32.10;;;;;;;1.88;100.00;101006.09;5074675;28;20028;-85
2021/12/11 05:50:22;;;;;;;59.63;31.77;;;;;;;1.89;100.00;101019.00;5092200;28;20034;-86
2021/12/11 05:52:57;;;;;;;57.55;30.75;;;;;;;1.95;100.00;101022.28;5091268;28;20024;-88
2021/12/11 05:55:24;;;;;;;61.42;32.33;;;;;;;1.92;100.00;101024.97;5090874;28;20035;-80
2021/12/11 05:57:55;;;;;;;57.55;31.83;;;;;;;1.96;100.00;101021.38;5090508;28;20103;-86
2021/12/11 06:00:27;;;;;;;63.92;32.67;;;;;;;1.97;100.00;101008.34;5091273;28;20076;-85
2021/12/11 06:02:53;;;;;;;63.92;33.50;;;;;;;2.00;100.00;101025.56;5090817;28;20029;-86
2021/12/11 06:05:18;;;;;;;66.88;33.38;;;;;;;1.98;100.00;101022.16;5090439;28;20039;-86
2021/12/11 06:07:44;;;;;;;58.70;32.17;;;;;;;2.01;100.00;101022.09;5070435;28;20477;-86
2021/12/11 06:10:17;;;;;;;59.47;32.42;;;;;;;2.02;100.00;101023.78;5083267;28;20443;-86
2021/12/11 06:12:48;;;;;;;62.10;32.88;;;;;;;1.99;100.00;101023.84;5091938;28;20036;-85
2021/12/11 06:15:14;;;;;;;55.58;32.45;;;;;;;2.03;100.00;101033.25;5110460;28;20020;-85
2021/12/11 06:17:42;;;;;;;57.83;32.90;;;;;;;1.98;100.00;101035.13;5109107;28;20030;-86
2021/12/11 06:20:14;;;;;;;55.45;32.65;;;;;;;2.03;100.00;101046.22;5110622;28;20102;-86
2021/12/11 06:22:39;;;;;;;60.57;34.03;;;;;;;1.99;100.00;101048.06;5087519;28;20036;-86
2021/12/11 06:25:12;;;;;;;62.90;35.15;;;;;;;2.05;100.00;101049.63;5069756;28;20104;-86
2021/12/11 06:27:39;;;;;;;65.65;35.25;;;;;;;2.03;100.00;101051.41;5071090;28;20103;-85
2021/12/11 06:30:07;;;;;;;75.97;39.08;;;;;;;2.07;100.00;101059.03;5069968;28;20033;-85
2021/12/11 06:32:33;;;;;;;74.95;39.08;;;;;;;2.07;100.00;101053.84;5070285;28;20477;-85
2021/12/11 06:35:03;;;;;;;82.68;40.88;;;;;;;2.15;100.00;101066.53;5069823;28;20055;-85
2021/12/11 06:37:28;;;;;;;86.18;41.45;;;;;;;2.12;100.00;101059.72;5068094;28;20377;-85
2021/12/11 06:39:54;;;;;;;91.05;43.25;;;;;;;2.18;100.00;101079.41;5069456;28;20028;-85
2021/12/11 06:42:20;;;;;;;94.47;43.53;;;;;;;2.19;100.00;101078.50;5085170;28;20035;-85
2021/12/11 06:44:48;;;;;;;100.40;46.08;;;;;;;2.19;100.00;101083.69;5088792;28;20031;-80
2021/12/11 06:47:15;;;;;;;99.15;46.53;;;;;;;2.22;100.00;101088.78;5089243;28;20024;-85
2021/12/11 06:49:42;;;;;;;100.75;46.83;;;;;;;2.29;100.00;101100.63;5089925;28;20016;-86
2021/12/11 06:52:15;;;;;;;102.35;48.15;;;;;;;2.30;100.00;101102.34;5092881;28;20024;-80
2021/12/11 06:54:42;;;;;;;102.65;47.53;;;;;;;2.34;100.00;101103.06;5092920;28;20031;-85
2021/12/11 06:57:10;;;;;;;96.13;47.78;;;;;;;2.30;100.00;101099.72;5091015;28;20039;-85
2021/12/11 06:59:47;;;;;;;97.78;47.55;;;;;;;2.39;100.00;101106.34;5094213;28;20028;-85
2021/12/11 07:02:14;;;;;;;97.47;48.78;;;;;;;2.40;100.00;101113.22;5093528;28;20043;-85
2021/12/11 07:04:40;;;;;;;99.28;48.10;;;;;;;2.40;100.00;101108.91;5093755;28;20028;-85
2021/12/11 07:07:05;;;;;;;88.20;46.22;;;;;;;2.43;100.00;101108.78;5094593;28;20019;-80
2021/12/11 07:09:31;;;;;;;89.80;45.33;;;;;;;2.46;100.00;101116.47;5093373;28;20503;-85
2021/12/11 07:11:57;;;;;;;91.20;46.47;;;;;;;2.51;100.00;101116.31;5094777;28;20081;-85
2021/12/11 07:14:26;;;;;;;92.72;46.85;;;;;;;2.52;100.00;101112.81;5089552;28;20067;-85
2021/12/11 07:16:52;;;;;;;93.38;47.08;;;;;;;2.52;100.00;101118.00;5089094;28;20036;-85
2021/12/11 07:19:18;;;;;;;88.40;45.53;;;;;;;2.57;100.00;101125.63;5072659;28;20473;-85
2021/12/11 07:21:44;;;;;;;86.03;45.38;;;;;;;2.61;100.00;101122.84;5072451;28;20028;-86
2021/12/11 07:24:13;;;;;;;83.03;44.55;;;;;;;2.65;100.00;101134.81;5071993;28;20025;-85
2021/12/11 07:26:39;;;;;;;82.05;43.25;;;;;;;2.67;100.00;101152.94;5072662;28;20035;-85
2021/12/11 07:29:17;;;;;;;78.70;42.58;;;;;;;2.66;100.00;101140.88;5073929;28;20020;-85
2021/12/11 07:31:45;;;;;;;78.63;40.80;;;;;;;2.68;100.00;101150.28;5078555;28;20028;-86
2021/12/11 07:34:12;;;;;;;74.75;39.63;;;;;;;2.70;100.00;101156.28;5092440;28;20048;-85
2021/12/11 07:36:39;;;;;;;66.40;37.50;;;;;;;2.72;100.00;101156.22;5092928;28;20044;-85
2021/12/11 07:39:16;;;;;;;74.07;37.88;;;;;;;2.77;100.00;101162.09;5094153;28;20150;-85
2021/12/11 07:41:45;;;;;;;71.05;37.92;;;;;;;2.78;100.00;101161.19;5092491;28;20028;-85
2021/12/11 07:44:10;;;;;;;66.35;35.40;;;;;;;2.79;100.00;101173.28;5092836;28;20024;-85
2021/12/11 07:46:37;;;;;;;60.88;34.33;;;;;;;2.86;100.00;101173.94;5089717;28;20923;-85
2021/12/11 07:49:04;;;;;;;62.10;33.13;;;;;;;2.83;100.00;101180.09;5088477;28;20435;-85
2021/12/11 07:51:31;;;;;;;60.63;32.35;;;;;;;2.89;100.00;101184.19;5093281;28;20028;-85
2021/12/11 07:53:57;;;;;;;61.20;29.63;;;;;;;2.88;100.00;101182.50;5089642;28;20028;-85
2021/12/11 07:56:24;;;;;;;54.28;29.13;;;;;;;2.92;100.00;101179.75;5092183;28;20483;-85
2021/12/11 07:58:52;;;;;;;58.45;28.60;;;;;;;2.96;100.00;101191.72;5093129;28;20035;-87
2021/12/11 08:01:19;;;;;;;54.55;27.55;;;;;;;2.97;100.00;101187.34;5091315;28;20027;-87
2021/12/11 08:03:44;;;;;;;51.97;25.55;;;;;;;2.97;100.00;101190.81;5093139;28;20028;-82
2021/12/11 08:06:14;;;;;;;48.67;24.20;;;;;;;3.10;100.00;101199.84;5094681;28;20078;-87
2021/12/11 08:08:41;;;;;;;50.83;22.85;;;;;;;3.07;100.00;101193.91;5096187;28;20055;-87
2021/12/11 08:11:12;;;;;;;50.80;22.13;;;;;;;3.10;100.00;101198.97;5103276;28;20127;-87
2021/12/11 08:13:39;;;;;;;42.95;20.90;;;;;;;3.23;100.00;101210.63;5100385;28;20023;-88
2021/12/11 08:16:05;;;;;;;45.10;19.42;;;;;;;3.25;100.00;101213.19;5091013;28;20028;-87
2021/12/11 08:18:30;;;;;;;48.80;18.98;;;;;;;3.24;100.00;101212.34;5091996;28;20073;-87
2021/12/11 08:20:56;;;;;;;40.97;18.48;;;;;;;3.20;100.00;101209.88;5090415;28;20028;-85
2021/12/11 08:23:22;;;;;;;37.10;16.35;;;;;;;3.23;100.00;101221.03;5095386;28;20487;-81
2021/12/11 08:25:48;;;;;;;40.85;16.73;;;;;;;3.32;100.00;101228.50;5100534;28;20032;-81
2021/12/11 08:28:17;;;;;;;35.13;14.45;;;;;;;3.33;100.00;101231.94;5098530;28;20028;-85
2021/12/11 08:30:46;;;;;;;37.88;14.13;;;;;;;3.31;100.00;101231.16;5099733;28;20051;-85
2021/12/11 08:33:13;;;;;;;37.15;12.80;;;;;;;3.38;100.00;101248.22;5095132;28;20039;-84
2021/12/11 08:35:39;;;;;;;45.58;12.43;;;;;;;3.44;100.00;101255.78;5106821;28;20048;-84
2021/12/11 08:38:06;;;;;;;42.03;12.30;;;;;;;3.41;100.00;101253.28;5102355;28;20028;-84
2021/12/11 08:41:12;;;;;;;37.70;10.48;;;;;;;3.51;100.00;101266.78;5101392;28;20031;-85
2021/12/11 08:43:39;;;;;;;35.67;9.35;;;;;;;3.56;100.00;101277.88;5043229;28;20028;-85
2021/12/11 08:46:10;;;;;;;35.95;9.35;;;;;;;3.61;100.00;101274.22;5095729;28;20040;-85
2021/12/11 08:48:46;;;;;;;34.83;9.13;;;;;;;3.60;100.00;101261.22;5103007;28;20020;-85
2021/12/11 08:51:22;;;;;;;29.83;8.20;;;;;;;3.67;100.00;101267.91;5101254;28;20052;-85
2021/12/11 08:53:50;;;;;;;36.50;8.27;;;;;;;3.71;100.00;101270.34;5096755;28;20111;-86
2021/12/11 08:56:15;;;;;;;26.73;7.68;;;;;;;3.81;100.00;101283.00;5094262;28;20065;-85
2021/12/11 08:58:45;;;;;;;28.60;7.05;;;;;;;3.80;100.00;101289.94;5101221;28;20023;-84
2021/12/11 09:01:35;;;;;;;27.00;7.10;;;;;;;3.83;100.00;101284.63;5100106;28;20490;-80
2021/12/11 09:04:17;;;;;;;21.33;6.60;;;;;;;3.90;100.00;101298.25;5107963;28;20031;-85
2021/12/11 09:07:03;;;;;;;33.55;6.80;;;;;;;3.98;100.00;101309.19;5106324;28;20116;-85
2021/12/11 09:09:35;;;;;;;26.90;6.20;;;;;;;3.99;100.00;101316.09;5097516;28;20020;-86
2021/12/11 09:12:08;;;;;;;30.25;5.90;;;;;;;4.00;100.00;101316.06;5087487;28;20036;-86
2021/12/11 09:14:36;;;;;;;35.72;5.85;;;;;;;4.08;100.00;101321.81;5090596;28;20109;-87
2021/12/11 09:17:05;;;;;;;23.20;5.68;;;;;;;4.13;100.00;101339.00;5090067;28;20165;-87
2021/12/11 09:20:03;;;;;;;26.33;5.68;;;;;;;4.15;100.00;101345.84;5085968;28;20098;-82
2021/12/11 09:26:25;;;;;;;36.67;5.75;;;;;;;4.17;100.00;101336.22;5088718;28;20047;-90
2021/12/11 09:30:05;;;;;;;;;;;;;;;;;;;;;
2021/12/11 09:37:00;;;;;;;21.13;4.82;;;;;;;4.49;100.00;101379.22;5087300;28;20046;-90
2021/12/11 09:40:16;;;;;;;34.70;5.95;;;;;;;4.55;100.00;101385.94;5082846;28;20048;-89
2021/12/11 09:43:08;;;;;;;24.83;5.60;;;;;;;4.63;100.00;101399.50;5081176;28;20031;-91
2021/12/11 09:45:44;;;;;;;29.73;5.95;;;;;;;4.60;100.00;101386.59;5070824;28;20036;-86
2021/12/11 09:48:17;;;;;;;24.90;6.03;;;;;;;4.71;100.00;101394.81;5100852;28;20031;-86
2021/12/11 09:50:57;;;;;;;28.13;5.82;;;;;;;4.70;100.00;101399.19;5107562;28;20035;-86
2021/12/11 09:53:26;;;;;;;29.63;5.25;;;;;;;4.77;100.00;101414.56;5096613;28;20050;-81
2021/12/11 09:55:51;;;;;;;25.77;4.93;;;;;;;4.80;100.00;101415.31;5109727;28;20028;-86
2021/12/11 09:58:23;;;;;;;23.02;4.78;;;;;;;4.81;100.00;101414.41;5110533;28;20045;-87
2021/12/11 10:01:03;;;;;;;19.88;4.93;;;;;;;4.89;100.00;101425.38;5109275;28;20374;-86
2021/12/11 10:03:33;;;;;;;20.65;4.72;;;;;;;4.88;100.00;101413.25;5089964;28;20044;-85
2021/12/11 10:06:25;;;;;;;23.50;5.35;;;;;;;4.93;100.00;101416.50;5089029;28;20062;-81
2021/12/11 10:09:07;;;;;;;30.65;5.18;;;;;;;4.92;100.00;101420.03;5089954;28;20020;-86
2021/12/11 10:11:32;;;;;;;18.98;5.38;;;;;;;5.01;100.00;101434.44;5089858;28;20020;-86
2021/12/11 10:14:05;;;;;;;17.27;5.05;;;;;;;4.98;100.00;101431.97;5092889;28;20024;-84
2021/12/11 10:16:39;;;;;;;37.88;5.97;;;;;;;5.01;100.00;101429.22;5088605;28;20024;-84
2021/12/11 10:19:07;;;;;;;24.02;4.88;;;;;;;5.02;100.00;101434.38;5088971;28;20039;-86
2021/12/11 10:21:38;;;;;;;17.95;4.95;;;;;;;5.11;100.00;101448.78;5088277;28;20181;-85
2021/12/11 10:24:11;;;;;;;18.48;4.75;;;;;;;5.09;100.00;101448.00;5094687;28;20536;-81
2021/12/11 10:26:36;;;;;;;26.73;5.70;;;;;;;5.09;100.00;101448.00;5112290;28;20039;-86
2021/12/11 10:29:07;;;;;;;19.67;5.57;;;;;;;5.15;100.00;101449.50;5111332;28;20856;-86
2021/12/11 10:31:40;;;;;;;23.67;5.68;;;;;;;5.16;100.00;101457.28;5102519;28;20394;-86
2021/12/11 10:34:10;;;;;;;21.50;6.28;;;;;;;5.14;100.00;101455.63;5091019;28;20020;-85
2021/12/11 10:36:41;;;;;;;20.20;6.00;;;;;;;5.22;100.00;101464.00;5092020;28;20063;-85
2021/12/11 10:39:09;;;;;;;24.58;6.85;;;;;;;5.23;100.00;101466.56;5086767;28;20029;-86
2021/12/11 10:41:36;;;;;;;20.63;5.93;;;;;;;5.22;100.00;101464.88;5096394;28;20094;-85
2021/12/11 10:44:09;;;;;;;18.85;6.00;;;;;;;5.25;100.00;101469.94;5092843;28;20592;-85
2021/12/11 10:47:04;;;;;;;22.60;6.25;;;;;;;5.33;100.00;101480.91;5094013;28;20500;-86
2021/12/11 10:49:30;;;;;;;29.13;5.97;;;;;;;5.36;100.00;101482.53;5091985;28;20028;-85
2021/12/11 10:52:01;;;;;;;23.00;6.78;;;;;;;5.38;100.00;101483.31;5093415;28;20077;-86
2021/12/11 10:54:27;;;;;;;23.33;7.05;;;;;;;5.41;100.00;101483.19;5093147;28;20103;-86
2021/12/11 10:56:53;;;;;;;19.33;6.38;;;;;;;5.49;100.00;101488.94;5101495;28;20052;-85
2021/12/11 10:59:27;;;;;;;17.10;6.15;;;;;;;5.51;100.00;101494.09;5094745;28;20059;-86
2021/12/11 11:02:00;;;;;;;24.88;6.40;;;;;;;5.54;100.00;101496.56;5111955;28;20106;-86
2021/12/11 11:04:29;;;;;;;20.17;5.90;;;;;;;5.59;100.00;101500.66;5107710;28;20019;-85
2021/12/11 11:06:55;;;;;;;15.48;5.32;;;;;;;5.60;100.00;101506.72;5113412;28;20024;-86
2021/12/11 11:09:22;;;;;;;16.60;5.05;;;;;;;5.58;100.00;101508.56;5105104;28;20028;-86
2021/12/11 11:11:51;;;;;;;18.02;5.00;;;;;;;5.59;100.00;101510.25;5107881;28;20043;-86
2021/12/11 11:14:18;;;;;;;19.95;5.05;;;;;;;5.68;100.00;101524.69;5101837;28;20525;-85
2021/12/11 11:16:51;;;;;;;23.77;5.25;;;;;;;5.68;100.00;101515.09;5091551;28;20036;-85
2021/12/11 11:19:19;;;;;;;22.75;5.13;;;;;;;5.74;100.00;101532.28;5091930;28;20036;-80
2021/12/11 11:21:46;;;;;;;14.25;4.68;;;;;;;5.73;100.00;101534.03;5098682;28;20035;-85
2021/12/11 11:24:15;;;;;;;23.05;4.80;;;;;;;5.72;100.00;101531.50;5090672;28;20031;-86
2021/12/11 11:26:45;;;;;;;18.33;4.78;;;;;;;5.74;100.00;101532.28;5092833;28;20034;-85
2021/12/11 11:29:19;;;;;;;20.63;4.90;;;;;;;5.74;99.95;101524.44;5095235;28;20095;-86
2021/12/11 11:31:47;;;;;;;16.95;4.35;;;;;;;5.78;100.00;101537.28;5088748;28;20039;-86
2021/12/11 11:34:16;;;;;;;17.63;4.38;;;;;;;5.79;99.71;101535.53;5092267;28;20416;-86
2021/12/11 11:36:47;;;;;;;21.90;4.25;;;;;;;5.85;99.50;101557.00;5108071;28;20389;-87
2021/12/11 11:39:14;;;;;;;19.52;4.60;;;;;;;5.81;99.58;101541.53;5097632;28;20031;-85
2021/12/11 11:41:51;;;;;;;19.13;4.75;;;;;;;5.90;99.24;101562.06;5100502;28;20431;-80
2021/12/11 11:44:19;;;;;;;19.48;4.90;;;;;;;5.90;99.12;101562.06;5093961;28;20077;-79
2021/12/11 11:46:45;;;;;;;16.73;4.45;;;;;;;5.89;98.81;101557.72;5093154;28;20020;-77
2021/12/11 11:49:13;;;;;;;22.60;5.03;;;;;;;5.91;98.76;101556.75;5092157;28;20448;-86
2021/12/11 11:51:47;;;;;;;26.10;4.82;;;;;;;5.90;98.29;101556.84;5102127;28;20110;-83
2021/12/11 11:54:15;;;;;;;19.30;5.30;;;;;;;5.98;98.02;101581.69;5092929;28;20465;-86
2021/12/11 11:56:54;;;;;;;19.35;5.22;;;;;;;5.95;98.90;101563.53;5097243;28;20028;-86
2021/12/11 11:59:20;;;;;;;18.70;4.85;;;;;;;6.00;98.41;101568.56;5094356;28;20077;-86